sensor_id;sensor_type;location;lat;lon;timestamp;pressure;altitude;pressure_sealevel;temperature;humidity
11395;BME280;5753;54.402;10.220;2023-03-04T00:01:53;101907.06;;;12.26;60.61
11395;BME280;5753;54.402;10.220;2023-03-04T00:04:20;101909.41;;;10.99;64.65
11395;BME280;5753;54.402;10.220;2023-03-04T00:06:46;101916.97;;;11.50;62.71
11395;BME280;5753;54.402;10.220;2023-03-04T00:09:13;101915.19;;;10.92;63.54
11395;BME280;5753;54.402;10.220;2023-03-04T00:11:39;101896.44;;;11.54;62.24
11395;BME280;5753;54.402;10.220;2023-03-04T00:14:05;101898.72;;;12.04;60.60
11395;BME280;5753;54.402;10.220;2023-03-04T00:16:31;101901.31;;;11.75;61.07
11395;BME280;5753;54.402;10.220;2023-03-04T00:18:58;101904.56;;;12.29;59.50
11395;BME280;5753;54.402;10.220;2023-03-04T00:21:24;101885.16;;;12.80;57.75
11395;BME280;5753;54.402;10.220;2023-03-04T00:23:50;101895.97;;;11.38;60.91
11395;BME280;5753;54.402;10.220;2023-03-04T00:26:17;101885.63;;;11.67;61.29
11395;BME280;5753;54.402;10.220;2023-03-04T00:28:43;101898.06;;;11.51;61.72
11395;BME280;5753;54.402;10.220;2023-03-04T00:31:10;101902.72;;;12.58;58.46
11395;BME280;5753;54.402;10.220;2023-03-04T00:33:36;101912.25;;;11.08;62.98
11395;BME280;5753;54.402;10.220;2023-03-04T00:36:04;101903.53;;;12.23;60.81
11395;BME280;5753;54.402;10.220;2023-03-04T00:38:30;101910.63;;;11.98;61.61
11395;BME280;5753;54.402;10.220;2023-03-04T00:40:56;101919.97;;;12.26;60.62
11395;BME280;5753;54.402;10.220;2023-03-04T00:43:22;101906.75;;;12.82;57.82
11395;BME280;5753;54.402;10.220;2023-03-04T00:45:49;101905.13;;;12.18;61.00
11395;BME280;5753;54.402;10.220;2023-03-04T00:48:15;101914.69;;;12.22;60.19
11395;BME280;5753;54.402;10.220;2023-03-04T00:50:42;101909.13;;;12.07;60.24
11395;BME280;5753;54.402;10.220;2023-03-04T00:53:09;101908.63;;;12.20;59.95
11395;BME280;5753;54.402;10.220;2023-03-04T00:55:36;101904.84;;;11.19;64.66
11395;BME280;5753;54.402;10.220;2023-03-04T00:58:02;101897.09;;;12.07;63.29
11395;BME280;5753;54.402;10.220;2023-03-04T01:00:28;101900.81;;;11.57;62.98
11395;BME280;5753;54.402;10.220;2023-03-04T01:02:55;101898.88;;;12.10;62.31
11395;BME280;5753;54.402;10.220;2023-03-04T01:05:21;101896.47;;;12.85;60.07
11395;BME280;5753;54.402;10.220;2023-03-04T01:07:47;101893.50;;;11.72;61.63
11395;BME280;5753;54.402;10.220;2023-03-04T01:10:14;101890.13;;;12.05;63.18
11395;BME280;5753;54.402;10.220;2023-03-04T01:12:41;101894.06;;;12.56;61.35
11395;BME280;5753;54.402;10.220;2023-03-04T01:15:12;101890.31;;;12.45;61.35
11395;BME280;5753;54.402;10.220;2023-03-04T01:17:39;101887.50;;;11.15;64.35
11395;BME280;5753;54.402;10.220;2023-03-04T01:20:06;101882.63;;;11.24;66.16
11395;BME280;5753;54.402;10.220;2023-03-04T01:22:33;101884.63;;;11.92;63.58
11395;BME280;5753;54.402;10.220;2023-03-04T01:24:59;101883.94;;;12.67;61.06
11395;BME280;5753;54.402;10.220;2023-03-04T01:27:25;101881.63;;;12.09;63.39
11395;BME280;5753;54.402;10.220;2023-03-04T01:29:52;101885.91;;;11.47;64.62
11395;BME280;5753;54.402;10.220;2023-03-04T01:32:18;101875.88;;;13.69;57.95
11395;BME280;5753;54.402;10.220;2023-03-04T01:34:45;101870.72;;;12.55;61.44
11395;BME280;5753;54.402;10.220;2023-03-04T01:37:11;101861.19;;;12.88;59.76
11395;BME280;5753;54.402;10.220;2023-03-04T01:39:40;101880.25;;;11.60;64.41
11395;BME280;5753;54.402;10.220;2023-03-04T01:42:17;101849.88;;;13.22;59.77
11395;BME280;5753;54.402;10.220;2023-03-04T01:44:44;101857.88;;;11.60;63.83
11395;BME280;5753;54.402;10.220;2023-03-04T01:47:12;101849.84;;;12.46;61.93
11395;BME280;5753;54.402;10.220;2023-03-04T01:49:38;101847.00;;;12.35;60.73
11395;BME280;5753;54.402;10.220;2023-03-04T01:52:05;101858.88;;;11.06;63.84
11395;BME280;5753;54.402;10.220;2023-03-04T01:54:35;101848.00;;;11.77;62.18
11395;BME280;5753;54.402;10.220;2023-03-04T01:57:01;101838.63;;;11.19;64.53
11395;BME280;5753;54.402;10.220;2023-03-04T01:59:30;101837.16;;;10.99;65.58
11395;BME280;5753;54.402;10.220;2023-03-04T02:01:59;101844.34;;;11.38;66.00
11395;BME280;5753;54.402;10.220;2023-03-04T02:04:28;101841.13;;;12.42;61.81
11395;BME280;5753;54.402;10.220;2023-03-04T02:06:57;101836.16;;;12.17;61.98
11395;BME280;5753;54.402;10.220;2023-03-04T02:09:24;101832.88;;;11.89;62.28
11395;BME280;5753;54.402;10.220;2023-03-04T02:11:51;101821.34;;;11.47;63.30
11395;BME280;5753;54.402;10.220;2023-03-04T02:14:18;101815.75;;;13.01;59.00
11395;BME280;5753;54.402;10.220;2023-03-04T02:16:45;101811.22;;;12.53;59.39
11395;BME280;5753;54.402;10.220;2023-03-04T02:22:17;101815.03;;;11.98;60.59
11395;BME280;5753;54.402;10.220;2023-03-04T02:24:56;101802.91;;;11.34;63.74
11395;BME280;5753;54.402;10.220;2023-03-04T02:27:25;101794.78;;;12.89;59.13
11395;BME280;5753;54.402;10.220;2023-03-04T02:29:51;101795.97;;;12.66;59.89
11395;BME280;5753;54.402;10.220;2023-03-04T02:32:17;101806.69;;;11.46;62.63
11395;BME280;5753;54.402;10.220;2023-03-04T02:34:48;101822.41;;;12.18;60.36
11395;BME280;5753;54.402;10.220;2023-03-04T02:37:17;101800.22;;;12.26;59.12
11395;BME280;5753;54.402;10.220;2023-03-04T02:39:48;101808.34;;;12.41;59.25
11395;BME280;5753;54.402;10.220;2023-03-04T02:42:16;101794.09;;;11.88;60.04
11395;BME280;5753;54.402;10.220;2023-03-04T02:44:44;101797.88;;;12.01;60.83
11395;BME280;5753;54.402;10.220;2023-03-04T02:47:15;101792.34;;;12.21;58.50
11395;BME280;5753;54.402;10.220;2023-03-04T02:49:42;101790.06;;;13.10;56.63
11395;BME280;5753;54.402;10.220;2023-03-04T02:52:13;101786.22;;;13.31;55.26
11395;BME280;5753;54.402;10.220;2023-03-04T02:54:39;101776.50;;;13.20;55.51
11395;BME280;5753;54.402;10.220;2023-03-04T02:57:08;101782.06;;;11.88;57.59
11395;BME280;5753;54.402;10.220;2023-03-04T02:59:35;101783.44;;;12.82;55.06
11395;BME280;5753;54.402;10.220;2023-03-04T03:02:02;101780.53;;;11.96;55.61
11395;BME280;5753;54.402;10.220;2023-03-04T03:04:28;101795.97;;;11.93;56.08
11395;BME280;5753;54.402;10.220;2023-03-04T03:06:55;101784.09;;;12.02;57.01
11395;BME280;5753;54.402;10.220;2023-03-04T03:09:21;101783.44;;;11.14;58.68
11395;BME280;5753;54.402;10.220;2023-03-04T03:11:47;101782.63;;;10.58;57.40
11395;BME280;5753;54.402;10.220;2023-03-04T03:14:13;101784.19;;;11.10;56.88
11395;BME280;5753;54.402;10.220;2023-03-04T03:16:40;101786.28;;;11.55;54.69
11395;BME280;5753;54.402;10.220;2023-03-04T03:19:06;101768.38;;;11.61;54.15
11395;BME280;5753;54.402;10.220;2023-03-04T03:21:32;101797.06;;;11.10;54.04
11395;BME280;5753;54.402;10.220;2023-03-04T03:23:58;101803.47;;;10.93;55.03
11395;BME280;5753;54.402;10.220;2023-03-04T03:26:25;101787.25;;;10.97;54.50
11395;BME280;5753;54.402;10.220;2023-03-04T03:28:51;101780.84;;;11.14;54.22
11395;BME280;5753;54.402;10.220;2023-03-04T03:31:17;101786.72;;;10.80;54.39
11395;BME280;5753;54.402;10.220;2023-03-04T03:33:44;101784.03;;;12.71;50.16
11395;BME280;5753;54.402;10.220;2023-03-04T03:36:11;101786.84;;;11.13;54.03
11395;BME280;5753;54.402;10.220;2023-03-04T03:38:38;101787.44;;;11.34;52.97
11395;BME280;5753;54.402;10.220;2023-03-04T03:41:04;101790.97;;;11.07;53.49
11395;BME280;5753;54.402;10.220;2023-03-04T03:43:30;101788.03;;;11.56;52.85
11395;BME280;5753;54.402;10.220;2023-03-04T03:45:56;101784.00;;;11.97;50.83
11395;BME280;5753;54.402;10.220;2023-03-04T03:48:23;101785.66;;;10.45;54.80
11395;BME280;5753;54.402;10.220;2023-03-04T03:50:49;101790.09;;;11.06;52.67
11395;BME280;5753;54.402;10.220;2023-03-04T03:53:15;101782.25;;;12.31;51.22
11395;BME280;5753;54.402;10.220;2023-03-04T03:55:41;101782.53;;;10.84;52.98
11395;BME280;5753;54.402;10.220;2023-03-04T03:58:07;101770.88;;;11.58;51.36
11395;BME280;5753;54.402;10.220;2023-03-04T04:00:33;101784.47;;;10.62;53.48
11395;BME280;5753;54.402;10.220;2023-03-04T04:03:00;101778.53;;;10.93;52.75
11395;BME280;5753;54.402;10.220;2023-03-04T04:05:27;101789.50;;;10.88;52.60
11395;BME280;5753;54.402;10.220;2023-03-04T04:07:53;101778.25;;;11.44;52.96
11395;BME280;5753;54.402;10.220;2023-03-04T04:10:19;101783.63;;;11.52;51.80
11395;BME280;5753;54.402;10.220;2023-03-04T04:12:46;101783.53;;;11.80;50.43
11395;BME280;5753;54.402;10.220;2023-03-04T04:15:13;101783.81;;;11.28;51.66
11395;BME280;5753;54.402;10.220;2023-03-04T04:17:39;101791.94;;;10.28;53.65
11395;BME280;5753;54.402;10.220;2023-03-04T04:20:06;101784.84;;;11.34;52.51
11395;BME280;5753;54.402;10.220;2023-03-04T04:22:33;101781.59;;;10.53;54.44
11395;BME280;5753;54.402;10.220;2023-03-04T04:25:00;101785.56;;;10.70;53.98
11395;BME280;5753;54.402;10.220;2023-03-04T04:27:26;101779.03;;;10.82;53.50
11395;BME280;5753;54.402;10.220;2023-03-04T04:29:52;101772.47;;;12.19;50.77
11395;BME280;5753;54.402;10.220;2023-03-04T04:32:18;101765.94;;;12.33;50.97
11395;BME280;5753;54.402;10.220;2023-03-04T04:34:45;101774.19;;;11.84;50.37
11395;BME280;5753;54.402;10.220;2023-03-04T04:37:11;101793.91;;;10.62;53.44
11395;BME280;5753;54.402;10.220;2023-03-04T04:39:37;101774.09;;;10.34;54.07
11395;BME280;5753;54.402;10.220;2023-03-04T04:42:03;101784.03;;;11.06;52.87
11395;BME280;5753;54.402;10.220;2023-03-04T04:44:30;101789.09;;;11.32;52.05
11395;BME280;5753;54.402;10.220;2023-03-04T04:46:56;101783.41;;;10.84;53.23
11395;BME280;5753;54.402;10.220;2023-03-04T04:49:22;101791.59;;;10.71;53.71
11395;BME280;5753;54.402;10.220;2023-03-04T04:51:48;101793.00;;;10.88;53.17
11395;BME280;5753;54.402;10.220;2023-03-04T04:54:14;101787.69;;;11.75;51.41
11395;BME280;5753;54.402;10.220;2023-03-04T04:56:40;101788.41;;;11.08;53.25
11395;BME280;5753;54.402;10.220;2023-03-04T04:59:07;101789.81;;;11.88;50.84
11395;BME280;5753;54.402;10.220;2023-03-04T05:01:33;101788.25;;;11.02;52.56
11395;BME280;5753;54.402;10.220;2023-03-04T05:04:00;101789.19;;;10.77;54.28
11395;BME280;5753;54.402;10.220;2023-03-04T05:06:26;101780.53;;;11.96;51.87
11395;BME280;5753;54.402;10.220;2023-03-04T05:08:52;101787.00;;;12.14;50.60
11395;BME280;5753;54.402;10.220;2023-03-04T05:11:19;101786.91;;;13.23;48.29
11395;BME280;5753;54.402;10.220;2023-03-04T05:13:46;101781.09;;;11.85;50.26
11395;BME280;5753;54.402;10.220;2023-03-04T05:16:13;101787.88;;;12.50;49.32
11395;BME280;5753;54.402;10.220;2023-03-04T05:18:39;101787.69;;;12.07;50.41
11395;BME280;5753;54.402;10.220;2023-03-04T05:21:06;101789.25;;;12.35;50.02
11395;BME280;5753;54.402;10.220;2023-03-04T05:23:35;101789.28;;;12.02;50.41
11395;BME280;5753;54.402;10.220;2023-03-04T05:26:02;101787.44;;;12.70;49.60
11395;BME280;5753;54.402;10.220;2023-03-04T05:28:29;101787.47;;;11.04;52.87
11395;BME280;5753;54.402;10.220;2023-03-04T05:30:55;101786.09;;;11.47;51.39
11395;BME280;5753;54.402;10.220;2023-03-04T05:33:22;101793.09;;;11.21;51.61
11395;BME280;5753;54.402;10.220;2023-03-04T05:35:48;101796.72;;;11.28;51.56
11395;BME280;5753;54.402;10.220;2023-03-04T05:38:17;101787.53;;;12.35;49.69
11395;BME280;5753;54.402;10.220;2023-03-04T05:40:44;101795.75;;;11.84;50.41
11395;BME280;5753;54.402;10.220;2023-03-04T05:43:11;101786.47;;;11.61;51.19
11395;BME280;5753;54.402;10.220;2023-03-04T05:45:39;101792.53;;;11.94;50.78
11395;BME280;5753;54.402;10.220;2023-03-04T05:48:06;101789.53;;;11.48;51.24
11395;BME280;5753;54.402;10.220;2023-03-04T05:50:33;101795.97;;;11.02;52.16
11395;BME280;5753;54.402;10.220;2023-03-04T05:52:59;101799.47;;;11.04;52.63
11395;BME280;5753;54.402;10.220;2023-03-04T05:55:26;101799.44;;;11.02;52.73
11395;BME280;5753;54.402;10.220;2023-03-04T05:57:54;101786.72;;;11.39;52.11
11395;BME280;5753;54.402;10.220;2023-03-04T06:00:20;101790.66;;;11.57;50.85
11395;BME280;5753;54.402;10.220;2023-03-04T06:02:47;101791.06;;;11.73;51.19
11395;BME280;5753;54.402;10.220;2023-03-04T06:05:17;101803.03;;;11.38;50.98
11395;BME280;5753;54.402;10.220;2023-03-04T06:07:44;101801.88;;;11.58;51.32
11395;BME280;5753;54.402;10.220;2023-03-04T06:10:13;101796.41;;;12.12;50.34
11395;BME280;5753;54.402;10.220;2023-03-04T06:12:40;101799.25;;;11.56;50.58
11395;BME280;5753;54.402;10.220;2023-03-04T06:15:07;101787.72;;;12.08;49.86
11395;BME280;5753;54.402;10.220;2023-03-04T06:17:39;101795.63;;;11.81;50.77
11395;BME280;5753;54.402;10.220;2023-03-04T06:20:06;101793.97;;;12.52;48.90
11395;BME280;5753;54.402;10.220;2023-03-04T06:22:33;101794.75;;;12.14;48.90
11395;BME280;5753;54.402;10.220;2023-03-04T06:25:00;101798.28;;;10.93;51.20
11395;BME280;5753;54.402;10.220;2023-03-04T06:27:27;101808.31;;;11.12;51.18
11395;BME280;5753;54.402;10.220;2023-03-04T06:29:53;101798.38;;;12.22;48.91
11395;BME280;5753;54.402;10.220;2023-03-04T06:32:19;101795.13;;;11.94;49.37
11395;BME280;5753;54.402;10.220;2023-03-04T06:34:45;101807.66;;;11.19;50.17
11395;BME280;5753;54.402;10.220;2023-03-04T06:37:12;101808.53;;;11.50;48.96
11395;BME280;5753;54.402;10.220;2023-03-04T06:39:38;101811.63;;;10.80;50.50
11395;BME280;5753;54.402;10.220;2023-03-04T06:42:04;101811.53;;;9.97;51.49
11395;BME280;5753;54.402;10.220;2023-03-04T06:44:30;101805.13;;;10.64;51.27
11395;BME280;5753;54.402;10.220;2023-03-04T06:46:56;101819.81;;;10.14;51.45
11395;BME280;5753;54.402;10.220;2023-03-04T06:49:23;101818.72;;;10.87;49.88
11395;BME280;5753;54.402;10.220;2023-03-04T06:51:49;101815.19;;;11.12;50.14
11395;BME280;5753;54.402;10.220;2023-03-04T06:54:15;101822.25;;;10.35;51.24
11395;BME280;5753;54.402;10.220;2023-03-04T06:56:41;101816.31;;;11.21;49.56
11395;BME280;5753;54.402;10.220;2023-03-04T06:59:07;101816.56;;;10.72;50.37
11395;BME280;5753;54.402;10.220;2023-03-04T07:01:34;101818.44;;;10.78;49.44
11395;BME280;5753;54.402;10.220;2023-03-04T07:04:01;101817.13;;;11.49;48.32
11395;BME280;5753;54.402;10.220;2023-03-04T07:06:28;101817.28;;;10.95;49.96
11395;BME280;5753;54.402;10.220;2023-03-04T07:08:56;101817.59;;;11.06;49.33
11395;BME280;5753;54.402;10.220;2023-03-04T07:11:23;101820.38;;;10.85;49.58
11395;BME280;5753;54.402;10.220;2023-03-04T07:13:49;101822.03;;;10.83;49.14
11395;BME280;5753;54.402;10.220;2023-03-04T07:16:18;101831.53;;;11.12;48.71
11395;BME280;5753;54.402;10.220;2023-03-04T07:18:45;101822.06;;;10.84;49.55
11395;BME280;5753;54.402;10.220;2023-03-04T07:21:12;101824.38;;;10.21;51.37
11395;BME280;5753;54.402;10.220;2023-03-04T07:23:39;101830.28;;;11.88;48.38
11395;BME280;5753;54.402;10.220;2023-03-04T07:26:05;101824.50;;;12.31;46.90
11395;BME280;5753;54.402;10.220;2023-03-04T07:28:32;101833.63;;;11.55;48.66
11395;BME280;5753;54.402;10.220;2023-03-04T07:33:47;101842.69;;;11.11;48.26
11395;BME280;5753;54.402;10.220;2023-03-04T07:36:14;101839.78;;;11.89;47.80
11395;BME280;5753;54.402;10.220;2023-03-04T07:38:48;101843.19;;;11.58;48.18
11395;BME280;5753;54.402;10.220;2023-03-04T07:41:15;101851.41;;;10.88;49.10
11395;BME280;5753;54.402;10.220;2023-03-04T07:43:42;101859.97;;;10.87;49.04
11395;BME280;5753;54.402;10.220;2023-03-04T07:46:09;101864.38;;;10.12;50.47
11395;BME280;5753;54.402;10.220;2023-03-04T07:48:36;101861.44;;;10.79;49.63
11395;BME280;5753;54.402;10.220;2023-03-04T07:51:17;101858.91;;;11.07;48.98
11395;BME280;5753;54.402;10.220;2023-03-04T07:53:48;101855.47;;;10.80;49.32
11395;BME280;5753;54.402;10.220;2023-03-04T07:56:17;101855.91;;;11.52;47.79
11395;BME280;5753;54.402;10.220;2023-03-04T07:58:44;101867.78;;;10.61;48.96
11395;BME280;5753;54.402;10.220;2023-03-04T08:01:12;101874.75;;;11.19;48.79
11395;BME280;5753;54.402;10.220;2023-03-04T08:03:39;101861.75;;;11.45;47.04
11395;BME280;5753;54.402;10.220;2023-03-04T08:06:07;101872.16;;;11.19;48.54
11395;BME280;5753;54.402;10.220;2023-03-04T08:08:34;101864.16;;;10.83;49.12
11395;BME280;5753;54.402;10.220;2023-03-04T08:11:04;101864.69;;;12.20;46.84
11395;BME280;5753;54.402;10.220;2023-03-04T08:13:31;101873.25;;;11.56;47.69
11395;BME280;5753;54.402;10.220;2023-03-04T08:15:57;101868.31;;;12.28;46.57
11395;BME280;5753;54.402;10.220;2023-03-04T08:18:24;101867.81;;;12.08;46.36
11395;BME280;5753;54.402;10.220;2023-03-04T08:20:50;101875.44;;;11.14;48.44
11395;BME280;5753;54.402;10.220;2023-03-04T08:23:17;101870.13;;;11.97;46.25
11395;BME280;5753;54.402;10.220;2023-03-04T08:25:44;101864.00;;;12.99;44.46
11395;BME280;5753;54.402;10.220;2023-03-04T08:28:11;101873.75;;;12.04;46.79
11395;BME280;5753;54.402;10.220;2023-03-04T08:30:40;101881.09;;;12.22;45.63
11395;BME280;5753;54.402;10.220;2023-03-04T08:33:07;101879.34;;;11.29;46.04
11395;BME280;5753;54.402;10.220;2023-03-04T08:35:36;101863.91;;;11.61;46.14
11395;BME280;5753;54.402;10.220;2023-03-04T08:38:03;101855.28;;;11.30;46.78
11395;BME280;5753;54.402;10.220;2023-03-04T08:40:29;101868.84;;;11.23;45.72
11395;BME280;5753;54.402;10.220;2023-03-04T08:42:56;101879.69;;;11.40;45.81
11395;BME280;5753;54.402;10.220;2023-03-04T08:45:22;101882.63;;;11.24;46.99
11395;BME280;5753;54.402;10.220;2023-03-04T08:47:49;101887.53;;;11.75;44.67
11395;BME280;5753;54.402;10.220;2023-03-04T08:50:16;101867.41;;;12.60;44.69
11395;BME280;5753;54.402;10.220;2023-03-04T08:52:42;101871.31;;;11.49;46.18
11395;BME280;5753;54.402;10.220;2023-03-04T08:55:08;101858.53;;;10.95;47.39
11395;BME280;5753;54.402;10.220;2023-03-04T08:57:34;101865.81;;;12.66;44.33
11395;BME280;5753;54.402;10.220;2023-03-04T09:00:01;101882.66;;;12.48;44.77
11395;BME280;5753;54.402;10.220;2023-03-04T09:02:27;101889.41;;;11.20;45.79
11395;BME280;5753;54.402;10.220;2023-03-04T09:04:53;101874.78;;;12.11;45.43
11395;BME280;5753;54.402;10.220;2023-03-04T09:07:19;101881.94;;;11.29;46.34
11395;BME280;5753;54.402;10.220;2023-03-04T09:09:45;101877.28;;;12.08;45.94
11395;BME280;5753;54.402;10.220;2023-03-04T09:12:11;101872.66;;;12.29;44.87
11395;BME280;5753;54.402;10.220;2023-03-04T09:14:38;101878.88;;;12.36;44.65
11395;BME280;5753;54.402;10.220;2023-03-04T09:17:04;101875.03;;;12.54;44.10
11395;BME280;5753;54.402;10.220;2023-03-04T09:19:31;101872.81;;;13.07;42.83
11395;BME280;5753;54.402;10.220;2023-03-04T09:21:58;101871.69;;;12.95;43.78
11395;BME280;5753;54.402;10.220;2023-03-04T09:24:25;101874.81;;;12.45;44.55
11395;BME280;5753;54.402;10.220;2023-03-04T09:26:52;101881.66;;;12.43;44.05
11395;BME280;5753;54.402;10.220;2023-03-04T09:29:18;101871.53;;;13.25;43.64
11395;BME280;5753;54.402;10.220;2023-03-04T09:31:45;101879.06;;;12.78;43.81
11395;BME280;5753;54.402;10.220;2023-03-04T09:34:11;101879.03;;;12.09;45.32
11395;BME280;5753;54.402;10.220;2023-03-04T09:36:37;101881.06;;;13.69;43.26
11395;BME280;5753;54.402;10.220;2023-03-04T09:39:03;101880.03;;;12.47;43.92
11395;BME280;5753;54.402;10.220;2023-03-04T09:41:51;101883.31;;;13.96;42.41
11395;BME280;5753;54.402;10.220;2023-03-04T09:44:36;101879.47;;;15.30;39.65
11395;BME280;5753;54.402;10.220;2023-03-04T09:47:09;101871.94;;;14.36;41.74
11395;BME280;5753;54.402;10.220;2023-03-04T09:49:39;101883.22;;;12.04;45.26
11395;BME280;5753;54.402;10.220;2023-03-04T10:00:33;101880.91;;;14.54;41.20
11395;BME280;5753;54.402;10.220;2023-03-04T10:03:14;101883.06;;;13.82;41.96
11395;BME280;5753;54.402;10.220;2023-03-04T10:06:18;101889.03;;;13.78;43.12
11395;BME280;5753;54.402;10.220;2023-03-04T10:09:04;101877.13;;;12.71;45.01
11395;BME280;5753;54.402;10.220;2023-03-04T10:11:43;101881.41;;;11.71;46.11
11395;BME280;5753;54.402;10.220;2023-03-04T10:16:52;101881.09;;;12.22;45.16
11395;BME280;5753;54.402;10.220;2023-03-04T10:22:34;101874.19;;;13.28;44.38
11395;BME280;5753;54.402;10.220;2023-03-04T10:25:28;101877.44;;;11.82;46.81
11395;BME280;5753;54.402;10.220;2023-03-04T10:28:30;101885.84;;;12.38;46.70
11395;BME280;5753;54.402;10.220;2023-03-04T10:33:55;101883.00;;;12.64;45.85
11395;BME280;5753;54.402;10.220;2023-03-04T10:41:29;101890.97;;;13.09;45.29
11395;BME280;5753;54.402;10.220;2023-03-04T10:46:29;101896.16;;;13.90;43.38
11395;BME280;5753;54.402;10.220;2023-03-04T10:48:56;101892.66;;;14.33;42.37
11395;BME280;5753;54.402;10.220;2023-03-04T10:51:25;101891.19;;;14.01;42.67
11395;BME280;5753;54.402;10.220;2023-03-04T10:54:00;101898.69;;;13.85;42.82
11395;BME280;5753;54.402;10.220;2023-03-04T10:56:51;101889.97;;;13.02;45.08
11395;BME280;5753;54.402;10.220;2023-03-04T10:59:43;101896.41;;;12.82;44.89
11395;BME280;5753;54.402;10.220;2023-03-04T11:04:40;101890.31;;;13.57;43.37
11395;BME280;5753;54.402;10.220;2023-03-04T11:07:10;101895.16;;;13.40;43.91
11395;BME280;5753;54.402;10.220;2023-03-04T11:09:37;101893.47;;;14.82;41.99
11395;BME280;5753;54.402;10.220;2023-03-04T11:12:11;101893.28;;;15.29;41.22
11395;BME280;5753;54.402;10.220;2023-03-04T11:14:49;101898.81;;;14.91;41.36
11395;BME280;5753;54.402;10.220;2023-03-04T11:22:22;101895.63;;;15.72;40.35
11395;BME280;5753;54.402;10.220;2023-03-04T11:24:56;101901.69;;;16.59;39.27
11395;BME280;5753;54.402;10.220;2023-03-04T11:27:53;101904.81;;;15.51;40.54
11395;BME280;5753;54.402;10.220;2023-03-04T11:33:08;101902.88;;;16.02;39.86
11395;BME280;5753;54.402;10.220;2023-03-04T11:36:05;101902.00;;;16.02;39.42
11395;BME280;5753;54.402;10.220;2023-03-04T11:38:43;101903.78;;;14.77;41.34
11395;BME280;5753;54.402;10.220;2023-03-04T11:41:32;101904.50;;;15.93;39.96
11395;BME280;5753;54.402;10.220;2023-03-04T11:44:01;101911.25;;;16.62;37.43
11395;BME280;5753;54.402;10.220;2023-03-04T11:55:13;101893.91;;;16.64;37.04
11395;BME280;5753;54.402;10.220;2023-03-04T11:57:59;101897.47;;;16.72;37.52
11395;BME280;5753;54.402;10.220;2023-03-04T12:14:27;101892.59;;;17.24;37.26
11395;BME280;5753;54.402;10.220;2023-03-04T12:17:33;101885.31;;;16.70;38.97
11395;BME280;5753;54.402;10.220;2023-03-04T12:20:39;101889.03;;;16.05;38.90
11395;BME280;5753;54.402;10.220;2023-03-04T12:31:32;101871.59;;;15.24;41.42
11395;BME280;5753;54.402;10.220;2023-03-04T12:39:25;101867.59;;;16.30;39.22
11395;BME280;5753;54.402;10.220;2023-03-04T12:45:08;101861.03;;;14.56;41.02
11395;BME280;5753;54.402;10.220;2023-03-04T12:51:04;101839.84;;;17.90;35.47
11395;BME280;5753;54.402;10.220;2023-03-04T12:56:24;101837.06;;;20.71;31.42
11395;BME280;5753;54.402;10.220;2023-03-04T12:58:52;101839.72;;;19.32;31.66
11395;BME280;5753;54.402;10.220;2023-03-04T13:01:37;101856.38;;;17.88;33.14
11395;BME280;5753;54.402;10.220;2023-03-04T13:07:11;101852.59;;;19.81;31.24
11395;BME280;5753;54.402;10.220;2023-03-04T13:10:11;101852.91;;;20.59;29.59
11395;BME280;5753;54.402;10.220;2023-03-04T13:12:54;101846.53;;;20.88;29.25
11395;BME280;5753;54.402;10.220;2023-03-04T13:17:52;101851.84;;;23.15;26.04
11395;BME280;5753;54.402;10.220;2023-03-04T13:22:59;101847.41;;;23.99;24.99
11395;BME280;5753;54.402;10.220;2023-03-04T13:31:05;101843.31;;;26.37;22.21
11395;BME280;5753;54.402;10.220;2023-03-04T13:36:06;101838.91;;;21.42;26.08
11395;BME280;5753;54.402;10.220;2023-03-04T13:41:51;101839.00;;;20.51;26.81
11395;BME280;5753;54.402;10.220;2023-03-04T13:46:57;101842.13;;;19.78;27.54
11395;BME280;5753;54.402;10.220;2023-03-04T13:49:31;101841.31;;;19.71;28.12
11395;BME280;5753;54.402;10.220;2023-03-04T13:51:58;101832.88;;;21.96;25.44
11395;BME280;5753;54.402;10.220;2023-03-04T13:54:44;101821.59;;;21.27;25.79
11395;BME280;5753;54.402;10.220;2023-03-04T13:57:16;101820.78;;;22.43;24.62
11395;BME280;5753;54.402;10.220;2023-03-04T13:59:54;101819.06;;;22.90;25.10
11395;BME280;5753;54.402;10.220;2023-03-04T14:02:23;101822.53;;;22.43;24.62
11395;BME280;5753;54.402;10.220;2023-03-04T14:04:57;101832.56;;;20.86;26.77
11395;BME280;5753;54.402;10.220;2023-03-04T14:07:30;101832.03;;;18.93;29.05
11395;BME280;5753;54.402;10.220;2023-03-04T14:12:23;101836.19;;;19.55;29.47
11395;BME280;5753;54.402;10.220;2023-03-04T14:14:56;101833.75;;;18.91;30.46
11395;BME280;5753;54.402;10.220;2023-03-04T14:17:30;101843.19;;;19.37;29.91
11395;BME280;5753;54.402;10.220;2023-03-04T14:20:00;101839.81;;;19.12;30.38
11395;BME280;5753;54.402;10.220;2023-03-04T14:22:32;101840.75;;;18.85;31.26
11395;BME280;5753;54.402;10.220;2023-03-04T14:27:40;101837.28;;;17.98;32.42
11395;BME280;5753;54.402;10.220;2023-03-04T14:30:17;101829.41;;;17.75;32.87
11395;BME280;5753;54.402;10.220;2023-03-04T14:32:44;101830.31;;;18.43;32.11
11395;BME280;5753;54.402;10.220;2023-03-04T14:35:28;101833.69;;;17.66;33.29
11395;BME280;5753;54.402;10.220;2023-03-04T14:38:11;101835.34;;;17.44;33.70
11395;BME280;5753;54.402;10.220;2023-03-04T14:41:33;101830.75;;;16.88;34.25
11395;BME280;5753;54.402;10.220;2023-03-04T14:43:45;101833.38;;;15.88;35.77
11395;BME280;5753;54.402;10.220;2023-03-04T14:46:15;101825.53;;;16.86;33.76
11395;BME280;5753;54.402;10.220;2023-03-04T14:48:48;101822.09;;;16.95;32.23
11395;BME280;5753;54.402;10.220;2023-03-04T14:51:30;101810.97;;;17.25;30.33
11395;BME280;5753;54.402;10.220;2023-03-04T14:53:57;101813.13;;;16.55;29.77
11395;BME280;5753;54.402;10.220;2023-03-04T14:56:28;101811.00;;;17.33;28.69